sensor_id;sensor_type;location;lat;lon;timestamp;temperature;humidity
21565;DHT22;10943;48.738;9.320;2022-08-19T00:02:14;26.70;99.90
21565;DHT22;10943;48.738;9.320;2022-08-19T00:04:41;26.70;99.90
21565;DHT22;10943;48.738;9.320;2022-08-19T00:07:08;26.50;99.90
21565;DHT22;10943;48.738;9.320;2022-08-19T00:09:36;26.30;99.90
21565;DHT22;10943;48.738;9.320;2022-08-19T00:12:03;26.30;99.90
21565;DHT22;10943;48.738;9.320;2022-08-19T00:14:31;26.20;99.90
21565;DHT22;10943;48.738;9.320;2022-08-19T00:16:59;26.10;99.90
21565;DHT22;10943;48.738;9.320;2022-08-19T00:19:27;26.10;99.90
21565;DHT22;10943;48.738;9.320;2022-08-19T00:21:55;26.10;99.90
21565;DHT22;10943;48.738;9.320;2022-08-19T00:24:23;26.00;99.90
21565;DHT22;10943;48.738;9.320;2022-08-19T00:26:52;26.00;99.90
21565;DHT22;10943;48.738;9.320;2022-08-19T00:29:21;25.90;99.90
21565;DHT22;10943;48.738;9.320;2022-08-19T00:31:51;26.00;99.90
21565;DHT22;10943;48.738;9.320;2022-08-19T00:34:24;26.00;99.90
21565;DHT22;10943;48.738;9.320;2022-08-19T00:36:55;25.90;99.90
21565;DHT22;10943;48.738;9.320;2022-08-19T00:39:24;25.80;99.90
21565;DHT22;10943;48.738;9.320;2022-08-19T00:41:51;25.70;99.90
21565;DHT22;10943;48.738;9.320;2022-08-19T00:44:22;25.80;99.90
21565;DHT22;10943;48.738;9.320;2022-08-19T00:46:55;25.70;99.90
21565;DHT22;10943;48.738;9.320;2022-08-19T00:49:43;25.70;99.90
21565;DHT22;10943;48.738;9.320;2022-08-19T00:52:28;25.60;99.90
21565;DHT22;10943;48.738;9.320;2022-08-19T00:55:02;25.50;99.90
21565;DHT22;10943;48.738;9.320;2022-08-19T00:57:42;25.50;99.90
21565;DHT22;10943;48.738;9.320;2022-08-19T01:00:16;25.50;99.90
21565;DHT22;10943;48.738;9.320;2022-08-19T01:02:46;25.50;99.90
21565;DHT22;10943;48.738;9.320;2022-08-19T01:05:21;25.50;99.90
21565;DHT22;10943;48.738;9.320;2022-08-19T01:07:59;25.60;99.90
21565;DHT22;10943;48.738;9.320;2022-08-19T01:10:36;25.60;99.90
21565;DHT22;10943;48.738;9.320;2022-08-19T01:13:09;25.50;99.90
21565;DHT22;10943;48.738;9.320;2022-08-19T01:15:52;25.50;99.90
21565;DHT22;10943;48.738;9.320;2022-08-19T01:18:25;25.60;99.90
21565;DHT22;10943;48.738;9.320;2022-08-19T01:20:57;25.60;99.90
21565;DHT22;10943;48.738;9.320;2022-08-19T01:23:30;25.60;99.90
21565;DHT22;10943;48.738;9.320;2022-08-19T01:26:13;25.70;99.90
21565;DHT22;10943;48.738;9.320;2022-08-19T01:28:46;25.70;99.90
21565;DHT22;10943;48.738;9.320;2022-08-19T01:31:21;25.60;99.90
21565;DHT22;10943;48.738;9.320;2022-08-19T01:33:55;25.60;99.90
21565;DHT22;10943;48.738;9.320;2022-08-19T01:36:32;25.60;99.90
21565;DHT22;10943;48.738;9.320;2022-08-19T01:39:09;25.60;99.90
21565;DHT22;10943;48.738;9.320;2022-08-19T01:41:39;25.60;99.90
21565;DHT22;10943;48.738;9.320;2022-08-19T01:44:08;25.60;99.90
21565;DHT22;10943;48.738;9.320;2022-08-19T01:46:46;25.70;99.90
21565;DHT22;10943;48.738;9.320;2022-08-19T01:49:18;25.70;99.90
21565;DHT22;10943;48.738;9.320;2022-08-19T01:51:48;25.50;99.90
21565;DHT22;10943;48.738;9.320;2022-08-19T01:54:18;25.50;99.90
21565;DHT22;10943;48.738;9.320;2022-08-19T01:56:58;25.50;99.90
21565;DHT22;10943;48.738;9.320;2022-08-19T01:59:39;25.60;99.90
21565;DHT22;10943;48.738;9.320;2022-08-19T02:02:08;25.60;99.90
21565;DHT22;10943;48.738;9.320;2022-08-19T02:04:36;25.70;99.90
21565;DHT22;10943;48.738;9.320;2022-08-19T02:07:06;25.70;99.90
21565;DHT22;10943;48.738;9.320;2022-08-19T02:09:35;25.60;99.90
21565;DHT22;10943;48.738;9.320;2022-08-19T02:12:04;25.50;99.90
21565;DHT22;10943;48.738;9.320;2022-08-19T02:14:34;25.50;99.90
21565;DHT22;10943;48.738;9.320;2022-08-19T02:17:03;25.50;99.90
21565;DHT22;10943;48.738;9.320;2022-08-19T02:19:31;25.50;99.90
21565;DHT22;10943;48.738;9.320;2022-08-19T02:22:07;25.60;99.90
21565;DHT22;10943;48.738;9.320;2022-08-19T02:24:34;25.70;99.90
21565;DHT22;10943;48.738;9.320;2022-08-19T02:27:01;25.60;99.90
21565;DHT22;10943;48.738;9.320;2022-08-19T02:29:29;25.60;99.90
21565;DHT22;10943;48.738;9.320;2022-08-19T02:31:56;25.50;99.90
21565;DHT22;10943;48.738;9.320;2022-08-19T02:34:23;25.60;99.90
21565;DHT22;10943;48.738;9.320;2022-08-19T02:36:52;25.60;99.90
21565;DHT22;10943;48.738;9.320;2022-08-19T02:39:19;25.50;99.90
21565;DHT22;10943;48.738;9.320;2022-08-19T02:41:46;25.60;99.90
21565;DHT22;10943;48.738;9.320;2022-08-19T02:44:14;25.70;99.90
21565;DHT22;10943;48.738;9.320;2022-08-19T02:46:57;25.70;99.90
21565;DHT22;10943;48.738;9.320;2022-08-19T02:49:24;25.60;99.90
21565;DHT22;10943;48.738;9.320;2022-08-19T02:51:51;25.50;99.90
21565;DHT22;10943;48.738;9.320;2022-08-19T02:54:19;25.50;99.90
21565;DHT22;10943;48.738;9.320;2022-08-19T02:56:46;25.50;99.90
21565;DHT22;10943;48.738;9.320;2022-08-19T02:59:13;25.60;99.90
21565;DHT22;10943;48.738;9.320;2022-08-19T03:01:41;25.60;99.90
21565;DHT22;10943;48.738;9.320;2022-08-19T03:04:12;25.60;99.90
21565;DHT22;10943;48.738;9.320;2022-08-19T03:06:45;25.70;99.90
21565;DHT22;10943;48.738;9.320;2022-08-19T03:09:14;25.70;99.90
21565;DHT22;10943;48.738;9.320;2022-08-19T03:11:42;25.60;99.90
21565;DHT22;10943;48.738;9.320;2022-08-19T03:14:10;25.50;99.90
21565;DHT22;10943;48.738;9.320;2022-08-19T03:16:45;25.50;99.90
21565;DHT22;10943;48.738;9.320;2022-08-19T03:19:19;25.40;99.90
21565;DHT22;10943;48.738;9.320;2022-08-19T03:21:51;25.40;99.90
21565;DHT22;10943;48.738;9.320;2022-08-19T03:24:19;25.30;99.90
21565;DHT22;10943;48.738;9.320;2022-08-19T03:26:50;25.30;99.90
21565;DHT22;10943;48.738;9.320;2022-08-19T03:29:26;25.30;99.90
21565;DHT22;10943;48.738;9.320;2022-08-19T03:31:59;25.30;99.90
21565;DHT22;10943;48.738;9.320;2022-08-19T03:34:32;25.30;99.90
21565;DHT22;10943;48.738;9.320;2022-08-19T03:37:06;25.20;99.90
21565;DHT22;10943;48.738;9.320;2022-08-19T03:39:38;25.20;99.90
21565;DHT22;10943;48.738;9.320;2022-08-19T03:42:09;25.20;99.90
21565;DHT22;10943;48.738;9.320;2022-08-19T03:44:58;25.10;99.90
21565;DHT22;10943;48.738;9.320;2022-08-19T03:47:25;25.10;99.90
21565;DHT22;10943;48.738;9.320;2022-08-19T03:49:52;24.90;99.90
21565;DHT22;10943;48.738;9.320;2022-08-19T03:52:20;24.90;99.90
21565;DHT22;10943;48.738;9.320;2022-08-19T03:54:47;25.00;99.90
21565;DHT22;10943;48.738;9.320;2022-08-19T03:57:14;25.10;99.90
21565;DHT22;10943;48.738;9.320;2022-08-19T03:59:41;25.10;99.90
21565;DHT22;10943;48.738;9.320;2022-08-19T04:02:11;25.10;99.90
21565;DHT22;10943;48.738;9.320;2022-08-19T04:04:42;25.00;99.90
21565;DHT22;10943;48.738;9.320;2022-08-19T04:07:12;25.00;99.90
21565;DHT22;10943;48.738;9.320;2022-08-19T04:09:48;25.10;99.90
21565;DHT22;10943;48.738;9.320;2022-08-19T04:12:17;25.10;99.90
21565;DHT22;10943;48.738;9.320;2022-08-19T04:14:47;25.10;99.90
21565;DHT22;10943;48.738;9.320;2022-08-19T04:17:14;25.00;99.90
21565;DHT22;10943;48.738;9.320;2022-08-19T04:19:41;25.00;99.90
21565;DHT22;10943;48.738;9.320;2022-08-19T04:22:09;25.10;99.90
21565;DHT22;10943;48.738;9.320;2022-08-19T04:24:38;25.00;99.90
21565;DHT22;10943;48.738;9.320;2022-08-19T04:27:06;25.00;99.90
21565;DHT22;10943;48.738;9.320;2022-08-19T04:29:33;25.10;99.90
21565;DHT22;10943;48.738;9.320;2022-08-19T04:32:00;25.10;99.90
21565;DHT22;10943;48.738;9.320;2022-08-19T04:34:36;25.00;99.90
21565;DHT22;10943;48.738;9.320;2022-08-19T04:37:26;25.00;99.90
21565;DHT22;10943;48.738;9.320;2022-08-19T04:40:03;25.00;99.90
21565;DHT22;10943;48.738;9.320;2022-08-19T04:42:51;25.10;99.90
21565;DHT22;10943;48.738;9.320;2022-08-19T04:45:18;24.90;99.90
21565;DHT22;10943;48.738;9.320;2022-08-19T04:47:49;25.00;99.90
21565;DHT22;10943;48.738;9.320;2022-08-19T04:50:42;25.10;99.90
21565;DHT22;10943;48.738;9.320;2022-08-19T04:53:10;25.10;99.90
21565;DHT22;10943;48.738;9.320;2022-08-19T04:55:40;25.00;99.90
21565;DHT22;10943;48.738;9.320;2022-08-19T04:58:09;25.10;99.90
21565;DHT22;10943;48.738;9.320;2022-08-19T05:00:38;25.10;99.90
21565;DHT22;10943;48.738;9.320;2022-08-19T05:03:07;25.10;99.90
21565;DHT22;10943;48.738;9.320;2022-08-19T05:05:39;25.00;99.90
21565;DHT22;10943;48.738;9.320;2022-08-19T05:08:14;25.10;99.90
21565;DHT22;10943;48.738;9.320;2022-08-19T05:10:57;25.10;99.90
21565;DHT22;10943;48.738;9.320;2022-08-19T05:13:25;25.20;99.90
21565;DHT22;10943;48.738;9.320;2022-08-19T05:15:55;25.30;99.90
21565;DHT22;10943;48.738;9.320;2022-08-19T05:18:25;25.10;99.90
21565;DHT22;10943;48.738;9.320;2022-08-19T05:21:18;25.20;99.90
21565;DHT22;10943;48.738;9.320;2022-08-19T05:24:06;25.30;99.90
21565;DHT22;10943;48.738;9.320;2022-08-19T05:26:37;25.20;99.90
21565;DHT22;10943;48.738;9.320;2022-08-19T05:29:06;25.20;99.90
21565;DHT22;10943;48.738;9.320;2022-08-19T05:31:37;25.30;99.90
21565;DHT22;10943;48.738;9.320;2022-08-19T05:34:08;25.30;99.90
21565;DHT22;10943;48.738;9.320;2022-08-19T05:36:46;25.40;99.90
21565;DHT22;10943;48.738;9.320;2022-08-19T05:39:19;25.30;99.90
21565;DHT22;10943;48.738;9.320;2022-08-19T05:41:54;25.40;99.90
21565;DHT22;10943;48.738;9.320;2022-08-19T05:44:27;25.40;99.90
21565;DHT22;10943;48.738;9.320;2022-08-19T05:47:02;25.40;99.90
21565;DHT22;10943;48.738;9.320;2022-08-19T05:49:33;25.50;99.90
21565;DHT22;10943;48.738;9.320;2022-08-19T05:52:05;25.50;99.90
21565;DHT22;10943;48.738;9.320;2022-08-19T05:54:39;25.50;99.90
21565;DHT22;10943;48.738;9.320;2022-08-19T05:57:09;25.60;99.90
21565;DHT22;10943;48.738;9.320;2022-08-19T05:59:39;25.50;99.90
21565;DHT22;10943;48.738;9.320;2022-08-19T06:02:06;25.50;99.90
21565;DHT22;10943;48.738;9.320;2022-08-19T06:04:34;25.50;99.90
21565;DHT22;10943;48.738;9.320;2022-08-19T06:07:02;25.50;99.90
21565;DHT22;10943;48.738;9.320;2022-08-19T06:09:39;25.60;99.90
21565;DHT22;10943;48.738;9.320;2022-08-19T06:12:25;25.50;99.90
21565;DHT22;10943;48.738;9.320;2022-08-19T06:14:56;25.50;99.90
21565;DHT22;10943;48.738;9.320;2022-08-19T06:17:28;25.50;99.90
21565;DHT22;10943;48.738;9.320;2022-08-19T06:19:57;25.50;99.90
21565;DHT22;10943;48.738;9.320;2022-08-19T06:22:26;25.60;99.90
21565;DHT22;10943;48.738;9.320;2022-08-19T06:24:55;25.50;99.90
21565;DHT22;10943;48.738;9.320;2022-08-19T06:27:23;25.50;99.90
21565;DHT22;10943;48.738;9.320;2022-08-19T06:29:50;25.70;99.90
21565;DHT22;10943;48.738;9.320;2022-08-19T06:32:18;25.70;99.90
21565;DHT22;10943;48.738;9.320;2022-08-19T06:34:46;25.80;99.90
21565;DHT22;10943;48.738;9.320;2022-08-19T06:37:14;25.70;99.90
21565;DHT22;10943;48.738;9.320;2022-08-19T06:39:43;25.70;99.90
21565;DHT22;10943;48.738;9.320;2022-08-19T06:42:12;25.70;99.90
21565;DHT22;10943;48.738;9.320;2022-08-19T06:44:46;25.80;99.90
21565;DHT22;10943;48.738;9.320;2022-08-19T06:47:21;25.70;99.90
21565;DHT22;10943;48.738;9.320;2022-08-19T06:49:56;25.80;99.90
21565;DHT22;10943;48.738;9.320;2022-08-19T06:52:33;25.70;99.90
21565;DHT22;10943;48.738;9.320;2022-08-19T06:55:04;25.90;99.90
21565;DHT22;10943;48.738;9.320;2022-08-19T06:57:33;26.10;99.90
21565;DHT22;10943;48.738;9.320;2022-08-19T07:00:02;26.20;99.90
21565;DHT22;10943;48.738;9.320;2022-08-19T07:02:41;26.30;99.90
21565;DHT22;10943;48.738;9.320;2022-08-19T07:05:21;26.30;99.90
21565;DHT22;10943;48.738;9.320;2022-08-19T07:07:49;26.10;99.90
21565;DHT22;10943;48.738;9.320;2022-08-19T07:10:17;25.80;99.90
21565;DHT22;10943;48.738;9.320;2022-08-19T07:12:52;25.70;99.90
21565;DHT22;10943;48.738;9.320;2022-08-19T07:15:20;25.50;99.90
21565;DHT22;10943;48.738;9.320;2022-08-19T07:17:48;25.30;99.90
21565;DHT22;10943;48.738;9.320;2022-08-19T07:20:18;25.10;99.90
21565;DHT22;10943;48.738;9.320;2022-08-19T07:22:46;25.00;99.90
21565;DHT22;10943;48.738;9.320;2022-08-19T07:25:14;24.90;99.90
21565;DHT22;10943;48.738;9.320;2022-08-19T07:27:44;24.90;99.90
21565;DHT22;10943;48.738;9.320;2022-08-19T07:30:12;24.80;99.90
21565;DHT22;10943;48.738;9.320;2022-08-19T07:32:40;24.60;99.90
21565;DHT22;10943;48.738;9.320;2022-08-19T07:35:09;24.40;99.90
21565;DHT22;10943;48.738;9.320;2022-08-19T07:37:37;24.40;99.90
21565;DHT22;10943;48.738;9.320;2022-08-19T07:40:07;24.40;99.90
21565;DHT22;10943;48.738;9.320;2022-08-19T07:42:35;24.30;99.90
21565;DHT22;10943;48.738;9.320;2022-08-19T07:45:04;24.30;99.90
21565;DHT22;10943;48.738;9.320;2022-08-19T07:47:33;24.40;99.90
21565;DHT22;10943;48.738;9.320;2022-08-19T07:50:18;24.20;99.90
21565;DHT22;10943;48.738;9.320;2022-08-19T07:52:48;24.30;99.90
21565;DHT22;10943;48.738;9.320;2022-08-19T07:55:20;24.20;99.90
21565;DHT22;10943;48.738;9.320;2022-08-19T07:58:08;24.40;99.90
21565;DHT22;10943;48.738;9.320;2022-08-19T08:00:38;24.40;99.90
21565;DHT22;10943;48.738;9.320;2022-08-19T08:03:06;24.40;99.90
21565;DHT22;10943;48.738;9.320;2022-08-19T08:05:33;24.50;99.90
21565;DHT22;10943;48.738;9.320;2022-08-19T08:08:20;24.50;99.90
21565;DHT22;10943;48.738;9.320;2022-08-19T08:11:16;24.40;99.90
21565;DHT22;10943;48.738;9.320;2022-08-19T08:13:48;24.30;99.90
21565;DHT22;10943;48.738;9.320;2022-08-19T08:16:33;24.20;99.90
21565;DHT22;10943;48.738;9.320;2022-08-19T08:19:14;24.30;99.90
21565;DHT22;10943;48.738;9.320;2022-08-19T08:21:53;24.40;99.90
21565;DHT22;10943;48.738;9.320;2022-08-19T08:24:24;24.30;99.90
21565;DHT22;10943;48.738;9.320;2022-08-19T08:26:54;24.20;99.90
21565;DHT22;10943;48.738;9.320;2022-08-19T08:29:24;24.20;99.90
21565;DHT22;10943;48.738;9.320;2022-08-19T08:32:01;24.20;99.90
21565;DHT22;10943;48.738;9.320;2022-08-19T08:34:28;24.30;99.90
21565;DHT22;10943;48.738;9.320;2022-08-19T08:36:56;24.40;99.90
21565;DHT22;10943;48.738;9.320;2022-08-19T08:39:24;24.40;99.90
21565;DHT22;10943;48.738;9.320;2022-08-19T08:45:00;24.70;99.90
21565;DHT22;10943;48.738;9.320;2022-08-19T08:47:43;24.80;99.90
21565;DHT22;10943;48.738;9.320;2022-08-19T08:50:34;24.90;99.90
21565;DHT22;10943;48.738;9.320;2022-08-19T08:53:10;25.10;99.90
21565;DHT22;10943;48.738;9.320;2022-08-19T08:55:53;25.30;99.90
21565;DHT22;10943;48.738;9.320;2022-08-19T09:01:25;25.50;99.90
21565;DHT22;10943;48.738;9.320;2022-08-19T09:03:56;25.70;99.90
21565;DHT22;10943;48.738;9.320;2022-08-19T09:09:28;26.00;99.90
21565;DHT22;10943;48.738;9.320;2022-08-19T09:12:25;26.20;99.90
21565;DHT22;10943;48.738;9.320;2022-08-19T09:16:14;26.30;99.90
21565;DHT22;10943;48.738;9.320;2022-08-19T09:18:46;26.30;99.90
21565;DHT22;10943;48.738;9.320;2022-08-19T09:21:21;26.30;99.90
21565;DHT22;10943;48.738;9.320;2022-08-19T09:23:59;26.30;99.90
21565;DHT22;10943;48.738;9.320;2022-08-19T09:26:33;26.30;99.90
21565;DHT22;10943;48.738;9.320;2022-08-19T09:29:19;26.50;99.90
21565;DHT22;10943;48.738;9.320;2022-08-19T09:31:49;26.50;99.90
21565;DHT22;10943;48.738;9.320;2022-08-19T09:34:17;26.50;99.90
21565;DHT22;10943;48.738;9.320;2022-08-19T09:36:49;26.60;99.90
21565;DHT22;10943;48.738;9.320;2022-08-19T09:39:24;26.70;99.90
21565;DHT22;10943;48.738;9.320;2022-08-19T09:42:02;26.60;99.90
21565;DHT22;10943;48.738;9.320;2022-08-19T09:44:30;26.30;99.90
21565;DHT22;10943;48.738;9.320;2022-08-19T09:46:57;26.00;99.90
21565;DHT22;10943;48.738;9.320;2022-08-19T09:49:24;26.00;99.90
21565;DHT22;10943;48.738;9.320;2022-08-19T09:51:52;26.00;99.90
21565;DHT22;10943;48.738;9.320;2022-08-19T09:54:23;25.80;99.90
21565;DHT22;10943;48.738;9.320;2022-08-19T09:56:52;25.90;99.90
21565;DHT22;10943;48.738;9.320;2022-08-19T09:59:21;25.50;99.90
21565;DHT22;10943;48.738;9.320;2022-08-19T10:01:48;25.50;99.90
21565;DHT22;10943;48.738;9.320;2022-08-19T10:04:16;25.40;99.90
21565;DHT22;10943;48.738;9.320;2022-08-19T10:06:49;25.40;99.90
21565;DHT22;10943;48.738;9.320;2022-08-19T10:09:19;25.30;99.90
21565;DHT22;10943;48.738;9.320;2022-08-19T10:12:00;25.20;99.90
21565;DHT22;10943;48.738;9.320;2022-08-19T10:14:31;25.20;99.90
21565;DHT22;10943;48.738;9.320;2022-08-19T10:17:03;25.10;99.90
21565;DHT22;10943;48.738;9.320;2022-08-19T10:19:47;25.20;99.90
21565;DHT22;10943;48.738;9.320;2022-08-19T10:22:22;25.30;99.90
21565;DHT22;10943;48.738;9.320;2022-08-19T10:24:52;25.30;99.90
21565;DHT22;10943;48.738;9.320;2022-08-19T10:27:20;25.30;99.90
21565;DHT22;10943;48.738;9.320;2022-08-19T10:29:48;25.30;99.90
21565;DHT22;10943;48.738;9.320;2022-08-19T10:32:15;25.50;99.90
21565;DHT22;10943;48.738;9.320;2022-08-19T10:34:43;25.50;99.90
21565;DHT22;10943;48.738;9.320;2022-08-19T10:37:16;25.40;99.90
21565;DHT22;10943;48.738;9.320;2022-08-19T10:39:55;25.50;99.90
21565;DHT22;10943;48.738;9.320;2022-08-19T10:42:23;25.50;99.90
21565;DHT22;10943;48.738;9.320;2022-08-19T10:44:50;25.50;99.90
21565;DHT22;10943;48.738;9.320;2022-08-19T10:47:18;25.40;99.90
21565;DHT22;10943;48.738;9.320;2022-08-19T10:49:55;25.40;99.90
21565;DHT22;10943;48.738;9.320;2022-08-19T10:52:46;25.50;99.90
21565;DHT22;10943;48.738;9.320;2022-08-19T10:55:22;25.30;99.90
21565;DHT22;10943;48.738;9.320;2022-08-19T10:58:14;24.90;99.90
21565;DHT22;10943;48.738;9.320;2022-08-19T11:00:55;24.80;99.90
21565;DHT22;10943;48.738;9.320;2022-08-19T11:03:25;24.70;99.90
21565;DHT22;10943;48.738;9.320;2022-08-19T11:06:12;24.40;99.90
21565;DHT22;10943;48.738;9.320;2022-08-19T11:08:39;24.20;99.90
21565;DHT22;10943;48.738;9.320;2022-08-19T11:11:08;24.00;99.90
21565;DHT22;10943;48.738;9.320;2022-08-19T11:13:38;23.90;99.90
21565;DHT22;10943;48.738;9.320;2022-08-19T11:16:12;23.80;99.90
21565;DHT22;10943;48.738;9.320;2022-08-19T11:18:51;24.00;99.90
21565;DHT22;10943;48.738;9.320;2022-08-19T11:21:37;23.90;99.90
21565;DHT22;10943;48.738;9.320;2022-08-19T11:24:12;23.90;99.90
21565;DHT22;10943;48.738;9.320;2022-08-19T11:26:51;23.90;99.90
21565;DHT22;10943;48.738;9.320;2022-08-19T11:29:25;24.00;99.90
21565;DHT22;10943;48.738;9.320;2022-08-19T11:31:54;23.90;99.90
21565;DHT22;10943;48.738;9.320;2022-08-19T11:34:24;23.80;99.90
21565;DHT22;10943;48.738;9.320;2022-08-19T11:36:55;24.00;99.90
21565;DHT22;10943;48.738;9.320;2022-08-19T11:39:29;24.00;99.90
21565;DHT22;10943;48.738;9.320;2022-08-19T11:41:59;23.90;99.90
21565;DHT22;10943;48.738;9.320;2022-08-19T11:44:28;23.90;99.90
21565;DHT22;10943;48.738;9.320;2022-08-19T11:46:57;23.90;99.90
21565;DHT22;10943;48.738;9.320;2022-08-19T11:49:35;24.00;99.90
21565;DHT22;10943;48.738;9.320;2022-08-19T11:52:02;24.20;99.90
21565;DHT22;10943;48.738;9.320;2022-08-19T11:54:30;24.30;99.90
21565;DHT22;10943;48.738;9.320;2022-08-19T11:56:57;24.40;99.90
21565;DHT22;10943;48.738;9.320;2022-08-19T11:59:24;24.20;99.90
21565;DHT22;10943;48.738;9.320;2022-08-19T12:01:53;24.30;99.90
21565;DHT22;10943;48.738;9.320;2022-08-19T12:04:23;24.40;99.90
21565;DHT22;10943;48.738;9.320;2022-08-19T12:06:51;24.40;99.90
21565;DHT22;10943;48.738;9.320;2022-08-19T12:09:18;24.20;99.90
21565;DHT22;10943;48.738;9.320;2022-08-19T12:11:48;24.20;99.90
21565;DHT22;10943;48.738;9.320;2022-08-19T12:14:17;24.20;99.90
21565;DHT22;10943;48.738;9.320;2022-08-19T12:16:45;24.30;99.90
21565;DHT22;10943;48.738;9.320;2022-08-19T12:19:18;24.00;99.90
21565;DHT22;10943;48.738;9.320;2022-08-19T12:21:49;24.10;99.90
21565;DHT22;10943;48.738;9.320;2022-08-19T12:24:17;24.10;99.90
21565;DHT22;10943;48.738;9.320;2022-08-19T12:26:50;24.20;99.90
21565;DHT22;10943;48.738;9.320;2022-08-19T12:29:20;24.00;99.90
21565;DHT22;10943;48.738;9.320;2022-08-19T12:31:50;23.80;99.90
21565;DHT22;10943;48.738;9.320;2022-08-19T12:34:18;23.80;99.90
21565;DHT22;10943;48.738;9.320;2022-08-19T12:36:47;23.90;99.90
21565;DHT22;10943;48.738;9.320;2022-08-19T12:39:16;23.80;99.90
21565;DHT22;10943;48.738;9.320;2022-08-19T12:41:43;23.70;99.90
21565;DHT22;10943;48.738;9.320;2022-08-19T12:44:21;23.80;99.90
21565;DHT22;10943;48.738;9.320;2022-08-19T12:46:56;24.00;99.90
21565;DHT22;10943;48.738;9.320;2022-08-19T12:49:24;24.30;99.90
21565;DHT22;10943;48.738;9.320;2022-08-19T12:52:12;24.40;99.90
21565;DHT22;10943;48.738;9.320;2022-08-19T12:54:48;24.20;99.90
21565;DHT22;10943;48.738;9.320;2022-08-19T12:57:22;24.40;99.90
21565;DHT22;10943;48.738;9.320;2022-08-19T13:00:11;24.50;99.90
21565;DHT22;10943;48.738;9.320;2022-08-19T13:02:47;24.70;99.90
21565;DHT22;10943;48.738;9.320;2022-08-19T13:05:23;24.50;99.90
21565;DHT22;10943;48.738;9.320;2022-08-19T13:07:56;24.50;99.90
21565;DHT22;10943;48.738;9.320;2022-08-19T13:10:32;24.20;99.90
21565;DHT22;10943;48.738;9.320;2022-08-19T13:13:05;23.90;99.90
21565;DHT22;10943;48.738;9.320;2022-08-19T13:16:01;23.80;99.90
21565;DHT22;10943;48.738;9.320;2022-08-19T13:18:30;23.90;99.90
21565;DHT22;10943;48.738;9.320;2022-08-19T13:21:03;24.00;99.90
21565;DHT22;10943;48.738;9.320;2022-08-19T13:23:34;23.90;99.90
21565;DHT22;10943;48.738;9.320;2022-08-19T13:26:06;23.60;99.90
21565;DHT22;10943;48.738;9.320;2022-08-19T13:28:35;23.30;99.90
21565;DHT22;10943;48.738;9.320;2022-08-19T13:31:23;23.30;99.90
21565;DHT22;10943;48.738;9.320;2022-08-19T13:34:12;23.40;99.90
21565;DHT22;10943;48.738;9.320;2022-08-19T13:36:41;23.40;99.90
21565;DHT22;10943;48.738;9.320;2022-08-19T13:39:09;23.40;99.90
21565;DHT22;10943;48.738;9.320;2022-08-19T13:41:42;23.30;99.90
21565;DHT22;10943;48.738;9.320;2022-08-19T13:44:15;23.30;99.90
21565;DHT22;10943;48.738;9.320;2022-08-19T13:46:46;23.40;99.90
21565;DHT22;10943;48.738;9.320;2022-08-19T13:49:20;23.40;99.90
21565;DHT22;10943;48.738;9.320;2022-08-19T13:51:47;23.30;99.90
21565;DHT22;10943;48.738;9.320;2022-08-19T13:54:14;23.40;99.90
21565;DHT22;10943;48.738;9.320;2022-08-19T13:56:44;23.20;99.90
21565;DHT22;10943;48.738;9.320;2022-08-19T13:59:12;23.40;99.90
21565;DHT22;10943;48.738;9.320;2022-08-19T14:01:40;23.50;99.90
21565;DHT22;10943;48.738;9.320;2022-08-19T14:04:08;23.40;99.90
21565;DHT22;10943;48.738;9.320;2022-08-19T14:06:36;23.50;99.90
21565;DHT22;10943;48.738;9.320;2022-08-19T14:09:04;23.50;99.90
21565;DHT22;10943;48.738;9.320;2022-08-19T14:11:32;23.40;99.90
21565;DHT22;10943;48.738;9.320;2022-08-19T14:13:59;23.50;99.90
21565;DHT22;10943;48.738;9.320;2022-08-19T14:16:27;23.60;99.90
21565;DHT22;10943;48.738;9.320;2022-08-19T14:18:55;23.70;99.90
21565;DHT22;10943;48.738;9.320;2022-08-19T14:21:24;23.60;99.90
21565;DHT22;10943;48.738;9.320;2022-08-19T14:23:53;23.80;99.90
21565;DHT22;10943;48.738;9.320;2022-08-19T14:26:21;23.70;99.90
21565;DHT22;10943;48.738;9.320;2022-08-19T14:28:50;23.60;99.90
21565;DHT22;10943;48.738;9.320;2022-08-19T14:31:19;23.60;99.90
21565;DHT22;10943;48.738;9.320;2022-08-19T14:33:48;23.70;99.90
21565;DHT22;10943;48.738;9.320;2022-08-19T14:36:18;23.70;99.90
21565;DHT22;10943;48.738;9.320;2022-08-19T14:38:48;23.60;99.90
21565;DHT22;10943;48.738;9.320;2022-08-19T14:41:21;23.70;99.90
21565;DHT22;10943;48.738;9.320;2022-08-19T14:43:52;23.60;99.90
21565;DHT22;10943;48.738;9.320;2022-08-19T14:46:23;23.80;99.90
21565;DHT22;10943;48.738;9.320;2022-08-19T14:48:55;23.90;99.90
21565;DHT22;10943;48.738;9.320;2022-08-19T14:51:26;23.70;99.90
21565;DHT22;10943;48.738;9.320;2022-08-19T14:53:54;23.70;99.90
21565;DHT22;10943;48.738;9.320;2022-08-19T14:56:25;23.80;99.90
21565;DHT22;10943;48.738;9.320;2022-08-19T14:58:55;23.80;99.90
21565;DHT22;10943;48.738;9.320;2022-08-19T15:01:27;23.80;99.90
21565;DHT22;10943;48.738;9.320;2022-08-19T15:03:54;24.00;99.90
21565;DHT22;10943;48.738;9.320;2022-08-19T15:06:26;23.90;99.90
21565;DHT22;10943;48.738;9.320;2022-08-19T15:08:54;24.00;99.90
21565;DHT22;10943;48.738;9.320;2022-08-19T15:11:29;24.10;99.90
21565;DHT22;10943;48.738;9.320;2022-08-19T15:13:59;24.10;99.90
21565;DHT22;10943;48.738;9.320;2022-08-19T15:16:28;24.20;99.90
21565;DHT22;10943;48.738;9.320;2022-08-19T15:18:57;23.90;99.90
21565;DHT22;10943;48.738;9.320;2022-08-19T15:21:28;24.00;99.90
21565;DHT22;10943;48.738;9.320;2022-08-19T15:23:57;24.00;99.90
21565;DHT22;10943;48.738;9.320;2022-08-19T15:26:25;24.00;99.90
21565;DHT22;10943;48.738;9.320;2022-08-19T15:28:59;24.20;99.90
21565;DHT22;10943;48.738;9.320;2022-08-19T15:31:29;24.20;99.90
21565;DHT22;10943;48.738;9.320;2022-08-19T15:34:04;24.20;99.90
21565;DHT22;10943;48.738;9.320;2022-08-19T15:36:33;24.30;99.90
21565;DHT22;10943;48.738;9.320;2022-08-19T15:39:04;24.50;99.90
21565;DHT22;10943;48.738;9.320;2022-08-19T15:41:33;24.70;99.90
21565;DHT22;10943;48.738;9.320;2022-08-19T15:44:06;24.50;99.90
21565;DHT22;10943;48.738;9.320;2022-08-19T15:46:39;24.50;99.90
21565;DHT22;10943;48.738;9.320;2022-08-19T15:49:12;24.50;99.90
21565;DHT22;10943;48.738;9.320;2022-08-19T15:51:45;24.50;99.90
21565;DHT22;10943;48.738;9.320;2022-08-19T15:54:19;24.40;99.90
21565;DHT22;10943;48.738;9.320;2022-08-19T15:56:49;24.40;99.90
21565;DHT22;10943;48.738;9.320;2022-08-19T15:59:37;24.40;99.90
21565;DHT22;10943;48.738;9.320;2022-08-19T16:02:31;24.50;99.90
21565;DHT22;10943;48.738;9.320;2022-08-19T16:05:23;24.10;99.90
21565;DHT22;10943;48.738;9.320;2022-08-19T16:08:13;23.80;99.90
21565;DHT22;10943;48.738;9.320;2022-08-19T16:10:41;23.60;99.90
21565;DHT22;10943;48.738;9.320;2022-08-19T16:13:09;23.70;99.90